Time;durP1;ratioP1;P1;durP2;ratioP2;P2;SDS_P1;SDS_P2;PMS_P1;PMS_P2;Temp;Humidity;BMP_temperature;BMP_pressure;BME280_temperature;BME280_humidity;BME280_pressure;Samples;Min_cycle;Max_cycle;Signal;HPM_P1;HPM_P2
2022/06/26 00:00:36;;;;;;;7.47;3.05;;;26.10;61.30;;;;;;5031093;28;20202;-72
2022/06/26 00:03:04;;;;;;;12.02;3.30;;;26.10;61.50;;;;;;5041390;28;20599;-72
2022/06/26 00:05:33;;;;;;;6.80;3.03;;;26.00;61.60;;;;;;5033964;28;20203;-73
2022/06/26 00:08:03;;;;;;;5.95;2.80;;;25.90;61.50;;;;;;5028645;28;20211;-72
2022/06/26 00:10:31;;;;;;;9.73;3.03;;;25.90;61.40;;;;;;5029267;28;20199;-72
2022/06/26 00:12:59;;;;;;;6.47;3.00;;;25.90;61.60;;;;;;5023960;28;20192;-72
2022/06/26 00:15:28;;;;;;;5.72;2.95;;;25.80;61.60;;;;;;5031665;28;20742;-72
2022/06/26 00:17:56;;;;;;;8.75;3.03;;;25.80;61.90;;;;;;5030591;28;20195;-72
2022/06/26 00:20:25;;;;;;;4.00;2.63;;;25.80;62.30;;;;;;5028507;28;20227;-72
2022/06/26 00:22:53;;;;;;;7.70;3.13;;;25.70;62.20;;;;;;5025530;28;20960;-72
2022/06/26 00:25:23;;;;;;;13.75;2.90;;;25.70;62.50;;;;;;5023433;28;20199;-72
2022/06/26 00:27:51;;;;;;;8.60;3.05;;;25.70;62.50;;;;;;5037012;28;20195;-72
2022/06/26 00:30:20;;;;;;;11.73;3.53;;;25.60;62.40;;;;;;5034537;28;20191;-72
2022/06/26 00:32:49;;;;;;;7.35;2.78;;;25.60;62.70;;;;;;5030442;28;20191;-72
2022/06/26 00:35:17;;;;;;;4.95;2.75;;;25.60;63.00;;;;;;5040139;28;20203;-72
2022/06/26 00:37:44;;;;;;;6.78;2.55;;;25.60;63.30;;;;;;5037865;28;20218;-72
2022/06/26 00:40:13;;;;;;;7.93;3.20;;;25.60;63.40;;;;;;5037539;28;20183;-73
2022/06/26 00:42:43;;;;;;;10.02;3.45;;;25.50;63.40;;;;;;5038544;28;20218;-72
2022/06/26 00:45:12;;;;;;;9.82;3.10;;;25.50;63.60;;;;;;5028264;28;20196;-72
2022/06/26 00:47:40;;;;;;;7.88;2.83;;;25.50;63.70;;;;;;5042228;28;20198;-72
2022/06/26 00:50:09;;;;;;;7.43;3.10;;;25.50;63.80;;;;;;5037211;28;20191;-72
2022/06/26 00:52:40;;;;;;;5.82;2.78;;;25.50;64.00;;;;;;5038221;28;20195;-72
2022/06/26 00:55:10;;;;;;;8.95;2.97;;;25.40;64.10;;;;;;5038476;28;20190;-73
2022/06/26 00:57:39;;;;;;;6.25;3.38;;;25.40;63.90;;;;;;5032779;28;20191;-72
2022/06/26 01:00:12;;;;;;;7.93;3.10;;;25.40;64.20;;;;;;5032311;28;20210;-72
2022/06/26 01:02:41;;;;;;;9.00;2.90;;;25.40;64.30;;;;;;5036548;28;20903;-72
2022/06/26 01:05:10;;;;;;;5.10;2.90;;;25.40;64.20;;;;;;5044151;28;20194;-73
2022/06/26 01:07:39;;;;;;;4.32;2.70;;;25.40;64.10;;;;;;5037468;28;20230;-72
2022/06/26 01:10:08;;;;;;;7.75;3.42;;;25.40;64.20;;;;;;5029352;28;20191;-72
2022/06/26 01:12:37;;;;;;;5.65;3.17;;;25.30;64.40;;;;;;5038027;28;20198;-73
2022/06/26 01:15:10;;;;;;;9.85;3.53;;;25.30;64.40;;;;;;5040176;28;20204;-72
2022/06/26 01:17:39;;;;;;;8.07;3.42;;;25.30;64.40;;;;;;5043767;28;20199;-72
2022/06/26 01:20:09;;;;;;;7.53;3.20;;;25.30;64.40;;;;;;5036846;28;20219;-72
2022/06/26 01:22:39;;;;;;;9.95;3.70;;;25.20;64.30;;;;;;5035527;28;20480;-72
2022/06/26 01:25:08;;;;;;;7.78;3.20;;;25.20;64.30;;;;;;5038715;28;20191;-72
2022/06/26 01:27:42;;;;;;;9.13;3.28;;;25.20;64.40;;;;;;5040259;28;20202;-72
2022/06/26 01:30:11;;;;;;;8.07;3.92;;;25.20;64.60;;;;;;5032857;28;20713;-72
2022/06/26 01:32:39;;;;;;;8.90;3.13;;;25.20;65.30;;;;;;5036707;28;20230;-72
2022/06/26 01:35:08;;;;;;;8.60;3.30;;;25.20;64.60;;;;;;5029549;28;20211;-72
2022/06/26 01:37:38;;;;;;;6.18;2.85;;;25.20;64.50;;;;;;5038239;28;20199;-72
2022/06/26 01:40:08;;;;;;;6.82;3.42;;;25.20;64.50;;;;;;5036858;28;20952;-72
2022/06/26 01:42:36;;;;;;;9.82;3.47;;;25.10;64.50;;;;;;5036971;28;20867;-72
2022/06/26 01:45:05;;;;;;;7.75;4.05;;;25.10;64.60;;;;;;5034600;28;20196;-72
2022/06/26 01:47:34;;;;;;;8.73;3.78;;;25.00;64.60;;;;;;5035932;28;20206;-72
2022/06/26 01:50:03;;;;;;;5.63;3.33;;;25.00;64.70;;;;;;5039305;28;20200;-72
2022/06/26 01:52:31;;;;;;;5.57;3.72;;;25.00;64.80;;;;;;5035579;28;20191;-72
2022/06/26 01:55:01;;;;;;;8.50;4.15;;;25.00;65.00;;;;;;5036774;28;20572;-72
2022/06/26 01:57:29;;;;;;;9.10;4.07;;;25.00;65.10;;;;;;5042219;28;20199;-72
2022/06/26 01:59:58;;;;;;;6.68;4.00;;;24.90;65.10;;;;;;5043167;28;20191;-72
2022/06/26 02:02:27;;;;;;;8.38;3.65;;;24.90;65.20;;;;;;5041512;28;20191;-72
2022/06/26 02:04:55;;;;;;;8.20;3.67;;;24.90;65.70;;;;;;5036753;28;20226;-72
2022/06/26 02:07:24;;;;;;;6.07;2.90;;;24.90;65.60;;;;;;5035931;28;20206;-72
2022/06/26 02:15:25;;;;;;;11.45;3.05;;;24.80;66.00;;;;;;5034976;28;20205;-74
2022/06/26 02:17:53;;;;;;;9.82;3.92;;;24.70;66.20;;;;;;5028360;28;20195;-71
2022/06/26 02:20:22;;;;;;;6.90;3.50;;;24.70;66.30;;;;;;5036159;28;20223;-70
2022/06/26 02:22:50;;;;;;;7.47;3.47;;;24.60;66.30;;;;;;5038398;28;20205;-71
2022/06/26 02:25:19;;;;;;;9.85;4.18;;;24.60;66.60;;;;;;5020880;28;20208;-71
2022/06/26 02:27:49;;;;;;;8.48;3.67;;;24.60;66.60;;;;;;5030215;28;20434;-74
2022/06/26 02:30:17;;;;;;;8.38;3.35;;;24.50;68.20;;;;;;5026812;28;20207;-71
2022/06/26 02:32:45;;;;;;;13.07;3.30;;;24.50;67.70;;;;;;5030614;28;20196;-71
2022/06/26 02:35:14;;;;;;;11.50;3.45;;;24.50;67.60;;;;;;5022430;28;20199;-71
2022/06/26 02:37:42;;;;;;;6.55;3.78;;;24.40;67.50;;;;;;5031256;28;20203;-71
2022/06/26 02:40:11;;;;;;;8.40;3.90;;;24.40;67.50;;;;;;5037538;28;20194;-71
2022/06/26 02:42:40;;;;;;;7.15;3.72;;;24.40;67.50;;;;;;5032720;28;20298;-71
2022/06/26 02:45:10;;;;;;;7.75;3.28;;;24.40;67.60;;;;;;5021270;28;20226;-72
2022/06/26 02:47:38;;;;;;;8.13;3.70;;;24.30;67.70;;;;;;5032894;28;20665;-71
2022/06/26 02:50:09;;;;;;;6.30;3.53;;;24.30;68.00;;;;;;5037536;28;20187;-71
2022/06/26 02:52:37;;;;;;;6.40;2.92;;;24.30;68.00;;;;;;5037661;28;20234;-73
2022/06/26 02:55:06;;;;;;;7.90;3.38;;;24.20;68.00;;;;;;5036615;28;20195;-74
2022/06/26 02:57:35;;;;;;;5.53;3.30;;;24.20;68.50;;;;;;5036320;28;20826;-74
2022/06/26 03:00:05;;;;;;;6.97;3.67;;;24.20;68.40;;;;;;5033437;28;20183;-73
2022/06/26 03:02:35;;;;;;;6.13;3.13;;;24.20;68.60;;;;;;5037818;28;20209;-73
2022/06/26 03:05:03;;;;;;;6.78;3.30;;;24.10;68.60;;;;;;5041455;28;20245;-73
2022/06/26 03:07:32;;;;;;;9.70;3.53;;;24.10;68.70;;;;;;5037163;28;20191;-73
2022/06/26 03:10:01;;;;;;;5.25;3.28;;;24.10;69.00;;;;;;5036365;28;20192;-73
2022/06/26 03:12:29;;;;;;;6.90;3.40;;;24.10;69.60;;;;;;5039605;28;20222;-73
2022/06/26 03:14:57;;;;;;;8.05;3.60;;;24.10;69.90;;;;;;5040691;28;20202;-74
2022/06/26 03:17:26;;;;;;;8.80;3.95;;;24.10;69.90;;;;;;5035347;28;20191;-74
2022/06/26 03:19:56;;;;;;;6.07;3.30;;;24.00;70.00;;;;;;5026105;28;20223;-74
2022/06/26 03:22:24;;;;;;;7.90;3.70;;;24.00;70.20;;;;;;5007323;28;20555;-73
2022/06/26 03:24:53;;;;;;;6.18;3.25;;;24.00;71.10;;;;;;5016646;28;20211;-73
2022/06/26 03:27:21;;;;;;;7.95;4.03;;;24.00;70.40;;;;;;5010490;28;20196;-73
2022/06/26 03:29:49;;;;;;;9.80;3.58;;;24.00;70.50;;;;;;5017349;28;20203;-73
2022/06/26 03:32:18;;;;;;;6.13;3.45;;;24.00;70.60;;;;;;5007939;28;20745;-73
2022/06/26 03:34:46;;;;;;;6.80;3.63;;;24.00;70.80;;;;;;5009779;28;20197;-73
2022/06/26 03:37:16;;;;;;;7.82;3.97;;;24.00;70.90;;;;;;5004242;28;20203;-74
2022/06/26 03:39:44;;;;;;;5.70;3.65;;;24.00;71.00;;;;;;5014049;28;21032;-73
2022/06/26 03:42:13;;;;;;;6.53;3.30;;;24.00;71.00;;;;;;5018818;28;20188;-74
2022/06/26 03:44:41;;;;;;;8.77;4.05;;;24.00;71.50;;;;;;5009027;28;20220;-73
2022/06/26 03:47:10;;;;;;;8.23;3.83;;;24.00;71.30;;;;;;5014875;28;20199;-73
2022/06/26 03:49:38;;;;;;;11.48;3.70;;;24.00;71.50;;;;;;5008376;28;20207;-73
2022/06/26 03:52:07;;;;;;;6.25;3.70;;;24.00;71.50;;;;;;5017031;28;20192;-73
2022/06/26 03:54:37;;;;;;;6.15;4.10;;;24.00;71.50;;;;;;5011907;28;20235;-73
2022/06/26 03:57:06;;;;;;;8.32;4.43;;;24.00;71.70;;;;;;5009893;28;20192;-73
2022/06/26 03:59:36;;;;;;;9.73;3.70;;;24.00;72.00;;;;;;5010964;28;20196;-73
2022/06/26 04:02:06;;;;;;;11.32;4.88;;;24.00;71.90;;;;;;5005929;28;20191;-73
2022/06/26 04:04:34;;;;;;;11.40;4.18;;;24.00;72.00;;;;;;5016291;28;20252;-73
2022/06/26 04:07:03;;;;;;;8.43;4.30;;;24.00;71.90;;;;;;5017947;28;20206;-73
2022/06/26 04:09:31;;;;;;;8.07;3.88;;;24.00;72.50;;;;;;5011167;28;20211;-73
2022/06/26 04:12:01;;;;;;;8.90;3.63;;;24.00;72.60;;;;;;5012278;28;20200;-73
2022/06/26 04:14:29;;;;;;;6.47;3.47;;;24.00;73.00;;;;;;5010368;28;20203;-73
2022/06/26 04:16:58;;;;;;;10.40;3.70;;;24.00;73.30;;;;;;5009514;28;20196;-75
2022/06/26 04:19:26;;;;;;;7.28;3.95;;;24.00;73.30;;;;;;5016130;28;20200;-73
2022/06/26 04:21:55;;;;;;;10.45;4.22;;;24.00;73.20;;;;;;5027450;28;20196;-73
2022/06/26 04:24:23;;;;;;;11.05;5.18;;;24.00;73.40;;;;;;5028930;28;20227;-73
2022/06/26 04:26:51;;;;;;;10.82;6.50;;;24.00;73.50;;;;;;5037836;28;20198;-73
2022/06/26 04:29:21;;;;;;;15.35;6.45;;;24.00;73.40;;;;;;5038752;28;20203;-74
2022/06/26 04:31:49;;;;;;;15.48;6.95;;;24.00;73.60;;;;;;5024849;28;20192;-73
2022/06/26 04:34:18;;;;;;;12.75;6.13;;;24.10;73.80;;;;;;5021529;28;20207;-73
2022/06/26 04:36:46;;;;;;;13.35;6.40;;;24.10;74.40;;;;;;5032450;28;20198;-73
2022/06/26 04:39:15;;;;;;;12.65;6.15;;;24.10;74.60;;;;;;5029501;28;20701;-74
2022/06/26 04:41:43;;;;;;;14.82;6.82;;;24.10;74.70;;;;;;5028468;28;20198;-73
2022/06/26 04:44:13;;;;;;;16.10;6.47;;;24.10;75.10;;;;;;5019783;28;20192;-73
2022/06/26 04:46:43;;;;;;;11.55;5.00;;;24.10;74.90;;;;;;5026170;28;20792;-74
2022/06/26 04:49:11;;;;;;;9.57;4.32;;;24.10;75.20;;;;;;5034004;28;20195;-73
2022/06/26 04:51:40;;;;;;;5.45;3.53;;;24.20;75.10;;;;;;5029253;28;20191;-73
2022/06/26 04:54:10;;;;;;;6.05;3.70;;;24.20;75.70;;;;;;5030488;28;20628;-73
2022/06/26 04:56:45;;;;;;;8.85;3.90;;;24.20;75.50;;;;;;5021945;28;20320;-75
2022/06/26 04:59:14;;;;;;;5.90;3.40;;;24.30;75.60;;;;;;5028861;28;20676;-74
2022/06/26 05:01:43;;;;;;;7.15;3.60;;;24.20;75.50;;;;;;5039220;28;20871;-73
2022/06/26 05:04:12;;;;;;;8.23;3.15;;;24.20;75.80;;;;;;5036981;28;20245;-74
2022/06/26 05:06:40;;;;;;;5.78;3.55;;;24.20;75.80;;;;;;5037070;28;21165;-73
2022/06/26 05:09:09;;;;;;;8.25;3.35;;;24.20;75.80;;;;;;5030338;28;20283;-73
2022/06/26 05:11:37;;;;;;;7.90;3.45;;;24.20;75.60;;;;;;5038554;28;20202;-73
2022/06/26 05:14:05;;;;;;;8.68;3.13;;;24.20;75.70;;;;;;5046686;28;20191;-73
2022/06/26 05:16:34;;;;;;;7.55;3.55;;;24.20;76.20;;;;;;5035709;28;20200;-73
2022/06/26 05:19:04;;;;;;;9.10;3.20;;;24.30;75.40;;;;;;5044586;28;20767;-73
2022/06/26 05:21:32;;;;;;;9.38;3.38;;;24.30;75.30;;;;;;5018857;28;20224;-74
2022/06/26 05:24:01;;;;;;;6.72;3.45;;;24.30;75.10;;;;;;5011266;28;20195;-73
2022/06/26 05:26:29;;;;;;;7.03;3.40;;;24.30;75.00;;;;;;5015066;28;20223;-73
2022/06/26 05:28:58;;;;;;;8.52;3.17;;;24.40;75.00;;;;;;5021738;28;20220;-71
2022/06/26 05:31:26;;;;;;;7.43;3.10;;;24.40;74.90;;;;;;5012989;28;20201;-73
2022/06/26 05:33:55;;;;;;;7.45;3.15;;;24.40;75.00;;;;;;5015287;28;21128;-73
2022/06/26 05:36:24;;;;;;;8.50;3.55;;;24.40;74.80;;;;;;5017317;28;20203;-74
2022/06/26 05:38:53;;;;;;;8.43;3.42;;;24.50;75.70;;;;;;5020825;28;20200;-74
2022/06/26 05:41:22;;;;;;;9.02;3.58;;;24.50;74.70;;;;;;5014515;28;20649;-74
2022/06/26 05:43:51;;;;;;;7.35;3.53;;;24.50;74.50;;;;;;5021959;28;20196;-74
2022/06/26 05:46:19;;;;;;;7.30;3.60;;;24.50;74.50;;;;;;5018563;28;20223;-74
2022/06/26 05:48:48;;;;;;;7.32;3.00;;;24.60;74.50;;;;;;5021993;28;20283;-72
2022/06/26 05:51:16;;;;;;;11.50;3.10;;;24.60;74.70;;;;;;5020807;28;20204;-74
2022/06/26 05:53:47;;;;;;;8.85;3.45;;;24.60;74.60;;;;;;5020728;28;20668;-74
2022/06/26 05:56:16;;;;;;;10.75;3.03;;;24.60;74.60;;;;;;5020810;28;20207;-74
2022/06/26 05:58:45;;;;;;;5.07;3.08;;;24.60;74.60;;;;;;5019235;28;20199;-75
2022/06/26 06:01:15;;;;;;;8.50;4.32;;;24.70;74.70;;;;;;5011277;28;20199;-74
2022/06/26 06:03:43;;;;;;;7.07;3.58;;;24.70;74.50;;;;;;5014651;28;20191;-75
2022/06/26 06:06:12;;;;;;;5.20;2.78;;;24.70;74.70;;;;;;5016973;28;20220;-73
2022/06/26 06:08:40;;;;;;;7.18;3.30;;;24.80;74.70;;;;;;5009825;28;20631;-75
2022/06/26 06:11:10;;;;;;;8.45;3.63;;;24.80;74.50;;;;;;5011419;28;20207;-74
2022/06/26 06:13:38;;;;;;;6.82;3.63;;;24.80;74.50;;;;;;5015413;28;20196;-73
2022/06/26 06:16:07;;;;;;;6.38;3.65;;;24.80;74.50;;;;;;5019029;28;20196;-73
2022/06/26 06:18:36;;;;;;;9.02;4.10;;;24.90;74.40;;;;;;5019703;28;20226;-73
2022/06/26 06:21:11;;;;;;;6.38;3.50;;;24.90;74.30;;;;;;5036012;28;20242;-73
2022/06/26 06:23:42;;;;;;;8.82;3.50;;;24.90;74.20;;;;;;5034335;28;20195;-72
2022/06/26 06:26:12;;;;;;;8.00;3.63;;;24.90;74.20;;;;;;5040360;28;20710;-73
2022/06/26 06:28:41;;;;;;;7.45;3.28;;;25.00;74.20;;;;;;5054809;28;20194;-73
2022/06/26 06:31:09;;;;;;;7.70;3.47;;;25.00;74.20;;;;;;5055087;28;20201;-73
2022/06/26 06:33:38;;;;;;;7.97;3.63;;;25.00;74.50;;;;;;5046092;28;20281;-73
2022/06/26 06:36:06;;;;;;;6.55;3.53;;;25.00;74.40;;;;;;5050080;28;20694;-73
2022/06/26 06:38:35;;;;;;;7.70;3.78;;;25.00;74.50;;;;;;5057238;28;20648;-73
2022/06/26 06:41:03;;;;;;;9.00;4.43;;;25.00;74.60;;;;;;5054460;28;20202;-73
2022/06/26 06:43:33;;;;;;;8.52;4.07;;;25.00;74.80;;;;;;5042965;28;20205;-73
2022/06/26 06:46:02;;;;;;;8.55;4.30;;;25.00;74.80;;;;;;5053513;28;20237;-73
2022/06/26 06:48:30;;;;;;;7.38;3.85;;;25.00;75.10;;;;;;5055977;28;20762;-73
2022/06/26 06:50:58;;;;;;;7.50;4.22;;;25.00;74.80;;;;;;5056186;28;20288;-73
2022/06/26 06:53:27;;;;;;;7.15;3.63;;;25.00;74.80;;;;;;5041598;28;20190;-73
2022/06/26 06:55:55;;;;;;;9.25;3.80;;;25.00;74.70;;;;;;5058128;28;20190;-73
2022/06/26 06:58:23;;;;;;;9.18;3.92;;;25.10;74.70;;;;;;5054474;28;20565;-74
2022/06/26 07:00:53;;;;;;;6.97;3.65;;;25.10;74.70;;;;;;5059038;28;20202;-73
2022/06/26 07:03:23;;;;;;;7.03;4.13;;;25.10;74.70;;;;;;5049390;28;20198;-73
2022/06/26 07:05:51;;;;;;;8.02;3.33;;;25.10;74.70;;;;;;5046143;28;20225;-73
2022/06/26 07:08:20;;;;;;;9.20;3.30;;;25.10;74.60;;;;;;5033449;28;20205;-74
2022/06/26 07:10:48;;;;;;;6.82;4.10;;;25.20;74.90;;;;;;5057066;28;20198;-73
2022/06/26 07:13:16;;;;;;;10.07;3.65;;;25.20;74.90;;;;;;5039488;28;20183;-73
2022/06/26 07:15:45;;;;;;;7.43;3.90;;;25.20;75.30;;;;;;5037467;28;20210;-74
2022/06/26 07:18:15;;;;;;;5.55;3.78;;;25.20;75.10;;;;;;5030030;28;20191;-73
2022/06/26 07:20:43;;;;;;;7.10;3.55;;;25.20;75.00;;;;;;5032584;28;20222;-71
2022/06/26 07:23:13;;;;;;;7.20;3.95;;;25.20;74.90;;;;;;5036192;28;20191;-72
2022/06/26 07:25:42;;;;;;;6.82;3.70;;;25.30;75.00;;;;;;5036137;28;20230;-73
2022/06/26 07:28:10;;;;;;;7.07;4.22;;;25.30;75.00;;;;;;5027043;28;20198;-72
2022/06/26 07:30:39;;;;;;;7.75;3.42;;;25.40;74.90;;;;;;5038960;28;20198;-73
2022/06/26 07:34:12;;;;;;;8.65;4.22;;;25.40;75.00;;;;;;5039383;28;20195;-74
2022/06/26 07:35:58;;;;;;;5.65;3.83;;;25.50;75.00;;;;;;5035609;28;20195;-74
2022/06/26 07:38:29;;;;;;;11.55;4.22;;;25.60;75.00;;;;;;5039289;28;20347;-74
2022/06/26 07:40:58;;;;;;;6.43;3.80;;;25.60;74.90;;;;;;5042351;28;20198;-74
2022/06/26 07:43:26;;;;;;;6.30;3.53;;;25.70;75.00;;;;;;5039403;28;20199;-73
2022/06/26 07:45:56;;;;;;;7.20;4.25;;;25.80;75.00;;;;;;5038553;28;20575;-74
2022/06/26 07:48:25;;;;;;;6.15;4.07;;;25.90;74.90;;;;;;5037553;28;20282;-72
2022/06/26 07:50:53;;;;;;;6.43;3.95;;;25.90;74.80;;;;;;5032662;28;20203;-72
2022/06/26 07:53:23;;;;;;;5.72;3.40;;;26.00;74.60;;;;;;5036182;28;20304;-74
2022/06/26 07:55:52;;;;;;;8.63;3.25;;;26.10;74.60;;;;;;5027290;28;20199;-73
2022/06/26 07:58:20;;;;;;;5.53;4.00;;;26.20;74.60;;;;;;5031462;28;20192;-74
2022/06/26 08:00:48;;;;;;;7.32;4.03;;;26.20;74.50;;;;;;5037298;28;20225;-76
2022/06/26 08:03:17;;;;;;;5.60;3.70;;;26.30;74.50;;;;;;5039806;28;20198;-73
2022/06/26 08:05:46;;;;;;;6.22;3.95;;;26.40;74.40;;;;;;5031798;28;20199;-72
2022/06/26 08:08:14;;;;;;;6.43;3.90;;;26.50;74.30;;;;;;5030873;28;20867;-75
2022/06/26 08:10:44;;;;;;;5.97;3.55;;;26.60;74.30;;;;;;5033873;28;20419;-74
2022/06/26 08:13:13;;;;;;;5.75;3.47;;;26.60;74.20;;;;;;5033731;28;21058;-73
2022/06/26 08:15:41;;;;;;;7.55;3.85;;;26.70;74.20;;;;;;5036770;28;20191;-73
2022/06/26 08:18:11;;;;;;;7.18;3.75;;;26.80;74.20;;;;;;5032193;28;20199;-74
2022/06/26 08:20:39;;;;;;;8.43;3.70;;;26.80;73.90;;;;;;5035067;28;20223;-73
2022/06/26 08:23:08;;;;;;;6.47;3.35;;;26.90;73.70;;;;;;5036298;28;20198;-72
2022/06/26 08:25:37;;;;;;;5.72;3.38;;;26.90;73.20;;;;;;5044601;28;20203;-73
2022/06/26 08:28:07;;;;;;;5.78;3.35;;;27.00;73.20;;;;;;5042421;28;20223;-73
2022/06/26 08:30:35;;;;;;;6.55;3.20;;;27.10;73.10;;;;;;5047537;28;20252;-72
2022/06/26 08:33:04;;;;;;;7.80;3.20;;;27.20;72.90;;;;;;5038129;28;20191;-72
2022/06/26 08:35:32;;;;;;;6.70;3.20;;;27.20;72.80;;;;;;5042732;28;20196;-73
2022/06/26 08:38:01;;;;;;;6.00;2.85;;;27.30;72.50;;;;;;5038773;28;20201;-73
2022/06/26 08:40:30;;;;;;;5.70;3.03;;;27.30;71.90;;;;;;5033712;28;20637;-72
2022/06/26 08:43:01;;;;;;;4.95;3.03;;;27.40;71.70;;;;;;5042039;28;20699;-72
2022/06/26 08:45:32;;;;;;;6.18;3.10;;;27.40;71.40;;;;;;5041906;28;20195;-71
2022/06/26 08:48:01;;;;;;;5.07;2.55;;;27.50;71.30;;;;;;5041442;28;20219;-72
2022/06/26 08:50:30;;;;;;;4.55;2.78;;;27.60;71.10;;;;;;5041256;28;20187;-75
2022/06/26 08:53:00;;;;;;;3.97;2.83;;;27.60;70.60;;;;;;5041867;28;20198;-75
2022/06/26 08:55:31;;;;;;;5.35;3.42;;;27.70;70.20;;;;;;5044019;28;20192;-71
2022/06/26 08:57:59;;;;;;;9.15;3.45;;;27.80;69.90;;;;;;5041348;28;20200;-73
2022/06/26 09:00:30;;;;;;;9.95;3.70;;;27.90;69.70;;;;;;5041863;28;20664;-72
2022/06/26 09:02:58;;;;;;;8.23;3.50;;;28.00;69.20;;;;;;5041964;28;20202;-73
2022/06/26 09:05:27;;;;;;;8.18;3.75;;;28.10;68.90;;;;;;5040185;28;20188;-72
2022/06/26 09:07:58;;;;;;;4.95;2.97;;;28.10;68.90;;;;;;5041137;28;20758;-72
2022/06/26 09:10:28;;;;;;;8.27;3.13;;;28.10;68.30;;;;;;5032579;28;20301;-72
2022/06/26 09:12:58;;;;;;;8.27;3.30;;;28.20;68.00;;;;;;5040466;28;20640;-75
2022/06/26 09:15:28;;;;;;;5.97;3.63;;;28.20;67.90;;;;;;5043107;28;20198;-72
2022/06/26 09:17:59;;;;;;;8.63;3.58;;;28.30;67.70;;;;;;5041420;28;20203;-73
2022/06/26 09:20:28;;;;;;;9.23;3.47;;;28.40;67.60;;;;;;5035312;28;20271;-73
2022/06/26 09:22:59;;;;;;;8.95;2.97;;;28.50;67.40;;;;;;5037990;28;20190;-73
2022/06/26 09:25:38;;;;;;;4.35;2.17;;;28.70;66.90;;;;;;5032929;28;20199;-73
2022/06/26 09:28:12;;;;;;;3.60;2.47;;;28.80;65.80;;;;;;5038333;28;20216;-73
2022/06/26 09:30:52;;;;;;;5.35;2.42;;;28.90;64.80;;;;;;5039992;28;20183;-74
2022/06/26 09:33:23;;;;;;;6.00;2.95;;;29.00;64.10;;;;;;5040380;28;20202;-74
2022/06/26 09:35:53;;;;;;;5.65;2.88;;;29.00;64.00;;;;;;5037039;28;20550;-74
2022/06/26 09:38:23;;;;;;;7.60;3.45;;;29.00;63.60;;;;;;5035789;28;20206;-73
2022/06/26 09:40:54;;;;;;;6.15;2.80;;;29.00;63.50;;;;;;5041869;28;20199;-74
2022/06/26 09:43:31;;;;;;;5.55;3.35;;;29.10;63.00;;;;;;5036038;28;20525;-73
2022/06/26 09:46:00;;;;;;;7.00;3.13;;;29.10;63.00;;;;;;5040688;28;20183;-74
2022/06/26 09:48:31;;;;;;;7.43;2.95;;;29.00;62.80;;;;;;5040313;28;20226;-73
2022/06/26 09:51:02;;;;;;;8.45;3.00;;;29.00;62.50;;;;;;5034861;28;20203;-74
2022/06/26 09:53:32;;;;;;;4.97;2.75;;;29.00;62.10;;;;;;5036722;28;20214;-74
2022/06/26 09:56:01;;;;;;;4.50;3.10;;;29.00;61.90;;;;;;5040394;28;20196;-74
2022/06/26 09:58:30;;;;;;;9.05;2.70;;;28.90;61.60;;;;;;5040629;28;20199;-73
2022/06/26 10:06:37;;;;;;;6.55;2.25;;;28.90;60.10;;;;;;5041824;28;20202;-74
2022/06/26 10:09:07;;;;;;;4.25;2.25;;;28.80;58.90;;;;;;5037635;28;20227;-73
2022/06/26 10:11:37;;;;;;;3.97;2.47;;;28.80;58.90;;;;;;5041829;28;20195;-74
2022/06/26 10:14:11;;;;;;;5.45;2.67;;;28.80;59.20;;;;;;5040892;28;20657;-75
2022/06/26 10:17:01;;;;;;;5.03;2.50;;;28.80;59.20;;;;;;5044648;28;20206;-73
2022/06/26 10:19:39;;;;;;;4.13;2.60;;;28.80;59.20;;;;;;5039702;28;20191;-74
2022/06/26 10:22:07;;;;;;;4.70;3.03;;;28.80;59.40;;;;;;5043246;28;20190;-73
2022/06/26 10:24:36;;;;;;;8.68;3.30;;;28.80;59.80;;;;;;5043040;28;20199;-73
2022/06/26 10:27:04;;;;;;;7.60;3.72;;;28.70;60.40;;;;;;5042454;28;20195;-73
2022/06/26 10:29:35;;;;;;;12.02;3.75;;;28.70;61.10;;;;;;5037855;28;20202;-74
2022/06/26 10:32:04;;;;;;;5.97;3.60;;;28.70;61.50;;;;;;5040302;28;20194;-74
2022/06/26 10:34:35;;;;;;;7.78;4.57;;;28.70;61.90;;;;;;5043501;28;20261;-74
2022/06/26 10:37:07;;;;;;;6.35;4.18;;;28.60;62.30;;;;;;5041930;28;20599;-75
2022/06/26 10:39:45;;;;;;;10.52;4.30;;;28.60;63.00;;;;;;5038339;28;20198;-75
2022/06/26 10:45:09;;;;;;;8.60;3.72;;;28.60;64.00;;;;;;5042405;28;20198;-74
2022/06/26 10:47:44;;;;;;;7.38;3.83;;;28.50;64.20;;;;;;5034537;28;20207;-74
2022/06/26 10:50:26;;;;;;;8.57;3.53;;;28.50;64.40;;;;;;5036214;28;20599;-76
2022/06/26 10:52:55;;;;;;;7.13;3.65;;;28.40;64.40;;;;;;5031904;28;20206;-75
2022/06/26 10:55:23;;;;;;;8.63;3.78;;;28.40;64.50;;;;;;5035487;28;20200;-72
2022/06/26 10:57:52;;;;;;;4.65;3.50;;;28.30;64.50;;;;;;5034412;28;20203;-74
2022/06/26 11:00:20;;;;;;;10.85;3.38;;;28.40;64.60;;;;;;5036122;28;20192;-74
2022/06/26 11:02:49;;;;;;;7.80;3.10;;;28.30;65.40;;;;;;5037728;28;20215;-75
2022/06/26 11:05:19;;;;;;;5.40;3.15;;;28.20;64.00;;;;;;5030992;28;20684;-74
2022/06/26 11:07:50;;;;;;;7.65;3.10;;;28.20;64.00;;;;;;5042213;28;20847;-74
2022/06/26 11:10:20;;;;;;;9.20;3.15;;;28.20;64.10;;;;;;5040883;28;20187;-74
2022/06/26 11:12:51;;;;;;;5.90;2.88;;;28.20;63.90;;;;;;5030373;28;20186;-72
2022/06/26 11:15:24;;;;;;;9.40;2.95;;;28.20;63.40;;;;;;5038468;28;20198;-74
2022/06/26 11:17:54;;;;;;;8.38;3.03;;;28.10;63.50;;;;;;5041903;28;20206;-75
2022/06/26 11:23:19;;;;;;;7.55;3.35;;;28.10;63.60;;;;;;5034984;28;20218;-74
2022/06/26 11:25:50;;;;;;;9.45;3.33;;;28.10;63.80;;;;;;5042336;28;20225;-74
2022/06/26 11:28:18;;;;;;;7.78;2.83;;;28.10;64.10;;;;;;5035415;28;20227;-74
2022/06/26 11:30:48;;;;;;;6.57;3.50;;;28.00;64.10;;;;;;5043396;28;20203;-74
2022/06/26 11:33:25;;;;;;;10.27;3.60;;;28.00;63.50;;;;;;5040322;28;20199;-74
2022/06/26 11:35:54;;;;;;;4.47;2.83;;;28.00;63.70;;;;;;5028392;28;20187;-74
2022/06/26 11:38:24;;;;;;;5.45;3.08;;;28.00;63.60;;;;;;5037239;28;20202;-74
2022/06/26 11:40:53;;;;;;;7.75;3.00;;;28.00;62.90;;;;;;5032445;28;20191;-73
2022/06/26 11:43:21;;;;;;;6.93;2.88;;;28.00;62.90;;;;;;5046197;28;20191;-73
2022/06/26 11:45:50;;;;;;;8.30;3.60;;;28.00;63.80;;;;;;5034017;28;20187;-74
2022/06/26 11:48:18;;;;;;;7.93;3.75;;;28.00;63.00;;;;;;5033790;28;20231;-74
2022/06/26 11:50:51;;;;;;;6.68;3.65;;;28.10;62.80;;;;;;5033992;28;20194;-74
2022/06/26 11:53:23;;;;;;;5.28;3.40;;;28.10;62.90;;;;;;5039934;28;20659;-74
2022/06/26 11:55:55;;;;;;;5.65;2.92;;;28.10;63.00;;;;;;5042620;28;20836;-74
2022/06/26 11:58:25;;;;;;;5.18;2.67;;;28.10;63.20;;;;;;5042999;28;20178;-73
2022/06/26 12:01:08;;;;;;;6.25;2.72;;;28.10;63.30;;;;;;5045194;28;20206;-74
2022/06/26 12:03:37;;;;;;;7.70;2.50;;;28.20;63.40;;;;;;5038563;28;20474;-75
2022/06/26 12:06:06;;;;;;;5.43;2.35;;;28.20;63.40;;;;;;5047876;28;20210;-75
2022/06/26 12:08:34;;;;;;;4.05;2.30;;;28.30;62.80;;;;;;5035114;28;20237;-74
2022/06/26 12:11:04;;;;;;;3.30;2.10;;;28.30;62.30;;;;;;5045182;28;20304;-74
2022/06/26 12:13:35;;;;;;;3.63;2.25;;;28.30;62.00;;;;;;5035655;28;20199;-75
2022/06/26 12:16:05;;;;;;;3.35;2.05;;;28.30;61.70;;;;;;5046024;28;20286;-74
2022/06/26 12:18:36;;;;;;;5.22;2.53;;;28.30;61.40;;;;;;5039288;28;20437;-74
2022/06/26 12:21:14;;;;;;;4.25;2.47;;;28.30;61.70;;;;;;5043793;28;20455;-73
2022/06/26 12:23:44;;;;;;;4.55;2.47;;;28.30;62.50;;;;;;5033093;28;20202;-73
2022/06/26 12:26:17;;;;;;;6.85;2.10;;;28.30;62.90;;;;;;5036389;28;20681;-74
2022/06/26 12:28:49;;;;;;;3.17;2.17;;;28.20;63.00;;;;;;5035490;28;20241;-74
2022/06/26 12:31:20;;;;;;;6.22;2.33;;;28.30;63.30;;;;;;5040585;28;20274;-74
2022/06/26 12:33:50;;;;;;;7.15;2.10;;;28.30;63.60;;;;;;5043525;28;20201;-75
2022/06/26 12:36:19;;;;;;;6.72;2.10;;;28.30;63.20;;;;;;5031828;28;20199;-74
2022/06/26 12:38:48;;;;;;;3.65;1.88;;;28.30;62.70;;;;;;5042007;28;20195;-74
2022/06/26 12:41:17;;;;;;;2.22;1.42;;;28.40;62.90;;;;;;5042897;28;20194;-73
2022/06/26 12:43:48;;;;;;;3.65;1.58;;;28.40;62.90;;;;;;5037186;28;20278;-75
2022/06/26 12:46:25;;;;;;;2.83;1.88;;;28.50;63.00;;;;;;5025760;28;20195;-77
2022/06/26 12:48:53;;;;;;;2.97;1.67;;;28.50;62.50;;;;;;5032678;28;20219;-74
2022/06/26 12:51:22;;;;;;;3.17;2.05;;;28.50;62.60;;;;;;5031717;28;20206;-75
2022/06/26 12:53:51;;;;;;;2.90;1.42;;;28.60;62.90;;;;;;5035026;28;20191;-75
2022/06/26 12:56:22;;;;;;;4.53;1.65;;;28.70;63.10;;;;;;5045493;28;20677;-74
2022/06/26 12:58:50;;;;;;;3.28;1.40;;;28.80;62.70;;;;;;5043176;28;20195;-74
2022/06/26 13:01:19;;;;;;;2.60;1.77;;;28.80;61.80;;;;;;5044801;28;20963;-75
2022/06/26 13:03:56;;;;;;;4.28;1.65;;;28.80;61.60;;;;;;5039735;28;20212;-74
2022/06/26 13:06:24;;;;;;;3.58;1.40;;;28.70;60.40;;;;;;5042358;28;20205;-74
2022/06/26 13:08:53;;;;;;;2.75;1.42;;;28.70;60.20;;;;;;5029240;28;20219;-74
2022/06/26 13:11:27;;;;;;;2.20;1.25;;;28.70;60.20;;;;;;5039155;28;20188;-78
2022/06/26 13:13:56;;;;;;;4.40;1.48;;;28.80;60.30;;;;;;5043971;28;20241;-81